SCC: Mid-Ohio practice one times

Pos Num Class Team Time Gap To 1st Speed --- --- ----- ------------------------------ ---------- ------- ------- ------- 1. 96 GS Turner Motorsport 1:35.063 85.510 2. 05...

Pos Num Class Team                                 Time     Gap  To 1st   Speed
--- --- ----- ------------------------------ ---------- ------- ------- -------
 1.  96 GS    Turner Motorsport                1:35.063                  85.510
 2.  05 GS    Multimatic Motorsports           1:35.283   0.220   0.220  85.312
 3.  09 GS    Automatic Racing                 1:35.440   0.157   0.377  85.172
 4.  55 GS    Multimatic Motorsports           1:35.469   0.029   0.406  85.146
 5.  40 GS    Team Sahlen                      1:35.570   0.101   0.507  85.056
 6.   5 GS    Blackforest Motorsports          1:35.646   0.076   0.583  84.988
 7.  16 GS    Zoom Motorsports                 1:35.708   0.062   0.645  84.933
 8.  13 GS    Unitech Racing                   1:35.744   0.036   0.681  84.901
 9.  60 GS    Finlay Motorsports               1:35.873   0.129   0.810  84.787
10.  69 GS    Krohn Racing/TRG                 1:35.981   0.108   0.918  84.692
11.   6 GS    Zoom Motorsports                 1:36.015   0.034   0.952  84.662
12.  28 GS    Race Prep Motorsports            1:36.054   0.039   0.991  84.627
13.  17 GS    Doncaster Racing                 1:36.094   0.040   1.031  84.592
14.  10 GS    Champion Motorsports             1:36.131   0.037   1.068  84.560
15.  38 GS    BGB Motorsports                  1:36.384   0.253   1.321  84.338
16.  07 GS    Powell Motorsport                1:36.428   0.044   1.365  84.299
17.  93 GS    Anchor Racing                    1:36.501   0.073   1.438  84.235
18.  21 GS    Bodymotion Racing                1:36.529   0.028   1.466  84.211
19.   7 GS    Power Racing Team                1:36.581   0.052   1.518  84.166
20.  91 GS    Fiorano Racing                   1:36.604   0.023   1.541  84.146
21.  11 GS    Powell Motorsport                1:36.659   0.055   1.596  84.098
22.  35 GS    Schuitemaker Motorsports         1:36.673   0.014   1.610  84.086
23.  88 GS    Knobel Racing                    1:36.811   0.138   1.748  83.966
24.  99 GS    Anchor Racing                    1:37.128   0.317   2.065  83.692
25.  83 GS    BGB Motorsports                  1:37.351   0.223   2.288  83.500
26.  90 GS    Automatic Racing                 1:37.464   0.113   2.401  83.403
27.  47 GS    TF Racing                        1:37.590   0.126   2.527  83.295
28.  85 GS    Knobel Racing                    1:37.593   0.003   2.530  83.293
29.  63 GS    Team RPM                         1:37.680   0.087   2.617  83.219
30.  59 GS    Rehagen Racing                   1:37.780   0.100   2.717  83.134
31.  89 GS    LNS Motorsports                  1:37.847   0.067   2.784  83.077
32.  58 GS    Rehagen Racing                   1:37.878   0.031   2.815  83.050
33.  43 GS    Team Sahlen                      1:38.554   0.676   3.491  82.481
34.  98 ST    Stewart Motorsports              1:38.962   0.408   3.899  82.141
35.  27 ST    Bill Fenton Motorsports          1:39.330   0.368   4.267  81.836
36.  70 ST    SpeedSource                      1:39.389   0.059   4.326  81.788
37.  97 ST    Turner Motorsports               1:39.459   0.070   4.396  81.730
38.  00 ST    Georgian Bay Motorsports         1:39.496   0.037   4.433  81.700
39.  06 ST    Compass360/Racing                1:39.502   0.006   4.439  81.695
40.  75 ST    Kensai Racing                    1:39.551   0.049   4.488  81.655
41.  95 ST    Turner Motorsports               1:39.624   0.073   4.561  81.595
42.  71 ST    TC Kline Racing                  1:39.661   0.037   4.598  81.565
43.  64 ST    Matt Connolly Motorsports        1:39.704   0.043   4.641  81.529
44.  01 ST    Georgian Bay Motorsports         1:39.771   0.067   4.708  81.475
45.   2 ST    2                                1:39.800   0.029   4.737  81.451
46.  87 GS    87                               1:39.879   0.079   4.816  81.386
47.   0 ST    0                                1:39.882   0.003   4.819  81.384
48.  66 ST    SpeedSource                      1:39.906   0.024   4.843  81.364
49.  65 ST    SpeedSource                      1:39.916   0.010   4.853  81.356
50.  74 ST    Kensai Racing                    1:39.992   0.076   4.929  81.295
51.  68 ST    SpeedSource                      1:39.996   0.004   4.933  81.291
52.  39 ST    Matt Connolly Motorsports        1:40.026   0.030   4.963  81.267
53.  12 ST    TC Kline Racing                  1:40.111   0.085   5.048  81.198
54.  32 ST    Franklin American                1:40.433   0.322   5.370  80.938
55.  36 ST    Compass360/Racing                1:40.582   0.149   5.519  80.818
56.  49 ST    Southpaw Racing                  1:40.952   0.370   5.889  80.521
57.  46 ST    Franklin American Mortgage       1:41.134   0.182   6.071  80.377
58.  29 ST    Bill Fenton Motorsports          1:41.398   0.264   6.335  80.167
59.  67 ST    SpeedSource                      1:41.649   0.251   6.586  79.969
60.  50 ST    Southpaw Racing                  1:42.468   0.819   7.405  79.330
61.  41 ST    Team Sahlen                      1:42.573   0.105   7.510  79.249
62.  51 ST    Fountain Motorsports             1:42.608   0.035   7.545  79.222
63.  62 ST    DEI Racers Group                 1:42.635   0.027   7.572  79.201
64.  94 ST    Radial Motorsports               1:42.685   0.050   7.622  79.162
65.  02 ST    Nuzzo Motorsports                1:42.728   0.043   7.665  79.129
66.  72 ST    Anchor Racing                    1:43.315   0.587   8.252  78.680
67.  20 ST    Nuzzo Motorsports                1:51.263   7.948  16.200  73.059
68.  18 GS    Race Prep Motorsports            2:02.954  11.691  27.891  66.113
69.  22 ST    CSL Racing                        No Time
70.  57 ST    Baglieracing                      No Time
71.  92 GS    Anchor Racing                     No Time

Write a comment
Show comments
About this article
Series Grand-Am
Drivers Matt Connolly , Bill Fenton
Teams Krohn Racing , Rehagen Racing , Turner Motorsport , Team Sahlen , Multimatic Motorsports , Automatic Racing , Bodymotion Racing , SpeedSource